sensor_id;sensor_type;location;lat;lon;timestamp;temperature;humidity
65836;SHT30;52595;51.608;7.216;2023-01-09T00:00:50;7.69;99.53
65836;SHT30;52595;51.608;7.216;2023-01-09T00:03:16;7.67;99.19
65836;SHT30;52595;51.608;7.216;2023-01-09T00:05:41;7.72;99.25
65836;SHT30;52595;51.608;7.216;2023-01-09T00:08:06;7.69;99.31
65836;SHT30;52595;51.608;7.216;2023-01-09T00:10:32;7.65;99.74
65836;SHT30;52595;51.608;7.216;2023-01-09T00:12:57;7.67;99.69
65836;SHT30;52595;51.608;7.216;2023-01-09T00:15:23;7.67;99.69
65836;SHT30;52595;51.608;7.216;2023-01-09T00:17:48;7.69;99.43
65836;SHT30;52595;51.608;7.216;2023-01-09T00:20:14;7.67;99.99
65836;SHT30;52595;51.608;7.216;2023-01-09T00:22:39;7.69;99.69
65836;SHT30;52595;51.608;7.216;2023-01-09T00:25:05;7.69;99.32
65836;SHT30;52595;51.608;7.216;2023-01-09T00:27:31;7.70;99.04
65836;SHT30;52595;51.608;7.216;2023-01-09T00:29:57;7.65;99.25
65836;SHT30;52595;51.608;7.216;2023-01-09T00:32:23;7.63;98.87
65836;SHT30;52595;51.608;7.216;2023-01-09T00:34:48;7.60;98.49
65836;SHT30;52595;51.608;7.216;2023-01-09T00:37:14;7.56;99.08
65836;SHT30;52595;51.608;7.216;2023-01-09T00:39:40;7.49;98.72
65836;SHT30;52595;51.608;7.216;2023-01-09T00:42:12;7.53;98.69
65836;SHT30;52595;51.608;7.216;2023-01-09T00:44:42;7.46;99.28
65836;SHT30;52595;51.608;7.216;2023-01-09T00:47:13;7.41;99.55
65836;SHT30;52595;51.608;7.216;2023-01-09T00:49:41;7.38;99.83
65836;SHT30;52595;51.608;7.216;2023-01-09T00:52:09;7.39;99.22
65836;SHT30;52595;51.608;7.216;2023-01-09T00:54:35;7.39;99.30
65836;SHT30;52595;51.608;7.216;2023-01-09T00:57:01;7.35;99.00
65836;SHT30;52595;51.608;7.216;2023-01-09T00:59:27;7.33;98.87
65836;SHT30;52595;51.608;7.216;2023-01-09T01:01:53;7.32;99.35
65836;SHT30;52595;51.608;7.216;2023-01-09T01:04:18;7.28;99.49
65836;SHT30;52595;51.608;7.216;2023-01-09T01:07:02;7.26;99.17
65836;SHT30;52595;51.608;7.216;2023-01-09T01:09:46;7.21;99.76
65836;SHT30;52595;51.608;7.216;2023-01-09T01:12:12;7.19;99.99
65836;SHT30;52595;51.608;7.216;2023-01-09T01:14:38;7.21;99.51
65836;SHT30;52595;51.608;7.216;2023-01-09T01:17:04;7.15;98.71
65836;SHT30;52595;51.608;7.216;2023-01-09T01:19:30;7.12;99.21
65836;SHT30;52595;51.608;7.216;2023-01-09T01:21:55;7.11;99.04
65836;SHT30;52595;51.608;7.216;2023-01-09T01:24:20;7.09;99.03
65836;SHT30;52595;51.608;7.216;2023-01-09T01:26:46;7.02;99.39
65836;SHT30;52595;51.608;7.216;2023-01-09T01:29:12;7.07;98.59
65836;SHT30;52595;51.608;7.216;2023-01-09T01:31:37;7.01;99.22
65836;SHT30;52595;51.608;7.216;2023-01-09T01:34:03;6.98;98.88
65836;SHT30;52595;51.608;7.216;2023-01-09T01:36:28;6.95;99.14
65836;SHT30;52595;51.608;7.216;2023-01-09T01:38:54;6.97;99.46
65836;SHT30;52595;51.608;7.216;2023-01-09T01:41:20;6.94;99.25
65836;SHT30;52595;51.608;7.216;2023-01-09T01:43:55;6.92;99.42
65836;SHT30;52595;51.608;7.216;2023-01-09T01:46:21;6.97;99.24
65836;SHT30;52595;51.608;7.216;2023-01-09T01:48:50;7.01;97.96
65836;SHT30;52595;51.608;7.216;2023-01-09T01:51:18;7.04;98.30
65836;SHT30;52595;51.608;7.216;2023-01-09T01:53:51;6.98;98.31
65836;SHT30;52595;51.608;7.216;2023-01-09T01:56:41;6.99;98.29
65836;SHT30;52595;51.608;7.216;2023-01-09T01:59:18;6.99;97.99
65836;SHT30;52595;51.608;7.216;2023-01-09T02:01:48;6.95;98.43
65836;SHT30;52595;51.608;7.216;2023-01-09T02:04:15;6.95;98.53
65836;SHT30;52595;51.608;7.216;2023-01-09T02:06:41;6.95;98.40
65836;SHT30;52595;51.608;7.216;2023-01-09T02:09:07;6.97;98.34
65836;SHT30;52595;51.608;7.216;2023-01-09T02:11:33;6.95;98.60
65836;SHT30;52595;51.608;7.216;2023-01-09T02:13:59;7.04;97.67
65836;SHT30;52595;51.608;7.216;2023-01-09T02:16:39;6.98;98.31
65836;SHT30;52595;51.608;7.216;2023-01-09T02:38:37;6.87;98.08
65836;SHT30;52595;51.608;7.216;2023-01-09T02:41:40;6.88;97.83
65836;SHT30;52595;51.608;7.216;2023-01-09T02:44:21;6.85;97.74
65836;SHT30;52595;51.608;7.216;2023-01-09T02:46:47;6.81;97.95
65836;SHT30;52595;51.608;7.216;2023-01-09T02:49:14;6.78;97.90
65836;SHT30;52595;51.608;7.216;2023-01-09T02:51:51;6.81;97.65
65836;SHT30;52595;51.608;7.216;2023-01-09T02:59:35;6.88;96.96
65836;SHT30;52595;51.608;7.216;2023-01-09T03:07:46;6.83;96.70
65836;SHT30;52595;51.608;7.216;2023-01-09T03:10:22;6.88;96.56
65836;SHT30;52595;51.608;7.216;2023-01-09T03:12:51;6.89;96.65
65836;SHT30;52595;51.608;7.216;2023-01-09T03:15:21;6.85;96.59
65836;SHT30;52595;51.608;7.216;2023-01-09T03:17:49;6.80;96.71
65836;SHT30;52595;51.608;7.216;2023-01-09T03:20:21;6.81;96.54
65836;SHT30;52595;51.608;7.216;2023-01-09T03:22:58;6.83;96.67
65836;SHT30;52595;51.608;7.216;2023-01-09T03:25:26;6.87;96.41
65836;SHT30;52595;51.608;7.216;2023-01-09T03:28:01;6.95;95.78
65836;SHT30;52595;51.608;7.216;2023-01-09T03:30:28;6.97;95.88
65836;SHT30;52595;51.608;7.216;2023-01-09T03:32:54;6.97;96.17
65836;SHT30;52595;51.608;7.216;2023-01-09T03:35:20;6.97;95.94
65836;SHT30;52595;51.608;7.216;2023-01-09T03:37:45;6.98;95.92
65836;SHT30;52595;51.608;7.216;2023-01-09T03:40:11;6.99;95.89
65836;SHT30;52595;51.608;7.216;2023-01-09T03:42:37;7.02;95.80
65836;SHT30;52595;51.608;7.216;2023-01-09T03:45:03;7.01;95.57
65836;SHT30;52595;51.608;7.216;2023-01-09T03:47:28;6.98;96.06
65836;SHT30;52595;51.608;7.216;2023-01-09T03:49:54;6.99;95.43
65836;SHT30;52595;51.608;7.216;2023-01-09T03:52:19;7.07;94.42
65836;SHT30;52595;51.608;7.216;2023-01-09T03:54:44;7.08;94.71
65836;SHT30;52595;51.608;7.216;2023-01-09T03:57:10;7.04;95.23
65836;SHT30;52595;51.608;7.216;2023-01-09T03:59:35;7.04;95.15
65836;SHT30;52595;51.608;7.216;2023-01-09T04:02:01;7.02;94.60
65836;SHT30;52595;51.608;7.216;2023-01-09T04:04:26;7.01;94.24
65836;SHT30;52595;51.608;7.216;2023-01-09T04:06:51;7.01;93.99
65836;SHT30;52595;51.608;7.216;2023-01-09T04:09:17;6.98;94.39
65836;SHT30;52595;51.608;7.216;2023-01-09T04:11:42;6.91;94.58
65836;SHT30;52595;51.608;7.216;2023-01-09T04:14:07;6.89;94.20
65836;SHT30;52595;51.608;7.216;2023-01-09T04:16:33;6.91;94.05
65836;SHT30;52595;51.608;7.216;2023-01-09T04:18:59;6.87;93.89
65836;SHT30;52595;51.608;7.216;2023-01-09T04:21:25;6.85;94.00
65836;SHT30;52595;51.608;7.216;2023-01-09T04:23:50;6.91;94.36
65836;SHT30;52595;51.608;7.216;2023-01-09T04:26:16;6.85;94.41
65836;SHT30;52595;51.608;7.216;2023-01-09T04:28:41;6.83;94.44
65836;SHT30;52595;51.608;7.216;2023-01-09T04:31:07;6.76;94.33
65836;SHT30;52595;51.608;7.216;2023-01-09T04:33:32;6.80;94.22
65836;SHT30;52595;51.608;7.216;2023-01-09T04:35:57;6.74;94.12
65836;SHT30;52595;51.608;7.216;2023-01-09T04:38:23;6.76;94.34
65836;SHT30;52595;51.608;7.216;2023-01-09T04:40:48;6.70;94.08
65836;SHT30;52595;51.608;7.216;2023-01-09T04:43:14;6.66;93.72
65836;SHT30;52595;51.608;7.216;2023-01-09T04:45:39;6.51;94.31
65836;SHT30;52595;51.608;7.216;2023-01-09T04:48:05;6.37;94.90
65836;SHT30;52595;51.608;7.216;2023-01-09T04:50:30;6.34;94.84
65836;SHT30;52595;51.608;7.216;2023-01-09T04:52:56;6.33;94.70
65836;SHT30;52595;51.608;7.216;2023-01-09T04:55:21;6.22;94.92
65836;SHT30;52595;51.608;7.216;2023-01-09T04:57:47;6.06;95.44
65836;SHT30;52595;51.608;7.216;2023-01-09T05:00:13;5.99;95.79
65836;SHT30;52595;51.608;7.216;2023-01-09T05:02:39;5.92;96.03
65836;SHT30;52595;51.608;7.216;2023-01-09T05:05:06;6.10;94.85
65836;SHT30;52595;51.608;7.216;2023-01-09T05:07:33;6.02;95.20
65836;SHT30;52595;51.608;7.216;2023-01-09T05:09:58;6.05;95.24
65836;SHT30;52595;51.608;7.216;2023-01-09T05:12:24;6.01;94.97
65836;SHT30;52595;51.608;7.216;2023-01-09T05:14:49;5.95;95.29
65836;SHT30;52595;51.608;7.216;2023-01-09T05:17:15;5.92;95.14
65836;SHT30;52595;51.608;7.216;2023-01-09T05:19:40;5.91;95.25
65836;SHT30;52595;51.608;7.216;2023-01-09T05:22:06;5.92;95.02
65836;SHT30;52595;51.608;7.216;2023-01-09T05:24:32;5.93;95.23
65836;SHT30;52595;51.608;7.216;2023-01-09T05:26:57;6.01;95.02
65836;SHT30;52595;51.608;7.216;2023-01-09T05:29:23;6.01;94.96
65836;SHT30;52595;51.608;7.216;2023-01-09T05:31:48;6.12;94.50
65836;SHT30;52595;51.608;7.216;2023-01-09T05:34:13;6.16;94.16
65836;SHT30;52595;51.608;7.216;2023-01-09T05:36:39;6.17;94.02
65836;SHT30;52595;51.608;7.216;2023-01-09T05:39:04;6.22;94.20
65836;SHT30;52595;51.608;7.216;2023-01-09T05:41:30;6.22;93.86
65836;SHT30;52595;51.608;7.216;2023-01-09T05:43:56;6.29;93.37
65836;SHT30;52595;51.608;7.216;2023-01-09T05:46:21;6.30;93.25
65836;SHT30;52595;51.608;7.216;2023-01-09T05:48:47;6.24;93.35
65836;SHT30;52595;51.608;7.216;2023-01-09T05:51:12;6.30;93.15
65836;SHT30;52595;51.608;7.216;2023-01-09T05:53:38;6.33;92.79
65836;SHT30;52595;51.608;7.216;2023-01-09T05:56:03;6.36;92.79
65836;SHT30;52595;51.608;7.216;2023-01-09T05:58:29;6.38;92.06
65836;SHT30;52595;51.608;7.216;2023-01-09T06:00:54;6.44;91.69
65836;SHT30;52595;51.608;7.216;2023-01-09T06:03:19;6.41;92.02
65836;SHT30;52595;51.608;7.216;2023-01-09T06:05:45;6.46;91.78
65836;SHT30;52595;51.608;7.216;2023-01-09T06:08:10;6.48;90.99
65836;SHT30;52595;51.608;7.216;2023-01-09T06:10:36;6.51;90.98
65836;SHT30;52595;51.608;7.216;2023-01-09T06:13:01;6.48;91.51
65836;SHT30;52595;51.608;7.216;2023-01-09T06:15:26;6.56;90.85
65836;SHT30;52595;51.608;7.216;2023-01-09T06:17:52;6.57;90.81
65836;SHT30;52595;51.608;7.216;2023-01-09T06:20:18;6.57;90.98
65836;SHT30;52595;51.608;7.216;2023-01-09T06:22:43;6.54;90.85
65836;SHT30;52595;51.608;7.216;2023-01-09T06:25:12;6.58;90.64
65836;SHT30;52595;51.608;7.216;2023-01-09T06:27:37;6.60;90.50
65836;SHT30;52595;51.608;7.216;2023-01-09T06:30:03;6.58;90.42
65836;SHT30;52595;51.608;7.216;2023-01-09T06:32:29;6.61;90.31
65836;SHT30;52595;51.608;7.216;2023-01-09T06:34:54;6.58;90.78
65836;SHT30;52595;51.608;7.216;2023-01-09T06:37:19;6.54;91.08
65836;SHT30;52595;51.608;7.216;2023-01-09T06:39:45;6.37;92.76
65836;SHT30;52595;51.608;7.216;2023-01-09T06:42:10;6.29;93.31
65836;SHT30;52595;51.608;7.216;2023-01-09T06:44:36;6.14;94.43
65836;SHT30;52595;51.608;7.216;2023-01-09T06:47:02;6.06;95.00
65836;SHT30;52595;51.608;7.216;2023-01-09T06:49:27;6.03;95.38
65836;SHT30;52595;51.608;7.216;2023-01-09T06:51:53;6.01;95.89
65836;SHT30;52595;51.608;7.216;2023-01-09T06:54:19;5.93;96.54
65836;SHT30;52595;51.608;7.216;2023-01-09T06:56:45;5.91;96.49
65836;SHT30;52595;51.608;7.216;2023-01-09T06:59:11;5.88;96.78
65836;SHT30;52595;51.608;7.216;2023-01-09T07:01:36;5.86;97.13
65836;SHT30;52595;51.608;7.216;2023-01-09T07:04:04;5.92;96.79
65836;SHT30;52595;51.608;7.216;2023-01-09T07:06:30;5.91;96.44
65836;SHT30;52595;51.608;7.216;2023-01-09T07:08:55;5.92;96.89
65836;SHT30;52595;51.608;7.216;2023-01-09T07:11:20;5.96;96.21
65836;SHT30;52595;51.608;7.216;2023-01-09T07:13:46;5.93;96.23
65836;SHT30;52595;51.608;7.216;2023-01-09T07:16:11;5.96;96.39
65836;SHT30;52595;51.608;7.216;2023-01-09T07:18:36;5.98;96.32
65836;SHT30;52595;51.608;7.216;2023-01-09T07:21:04;6.13;95.06
65836;SHT30;52595;51.608;7.216;2023-01-09T07:23:30;6.09;95.39
65836;SHT30;52595;51.608;7.216;2023-01-09T07:25:55;6.13;94.77
65836;SHT30;52595;51.608;7.216;2023-01-09T07:28:20;6.19;95.29
65836;SHT30;52595;51.608;7.216;2023-01-09T07:30:46;6.20;94.93
65836;SHT30;52595;51.608;7.216;2023-01-09T07:33:11;6.22;94.93
65836;SHT30;52595;51.608;7.216;2023-01-09T07:35:37;6.22;95.16
65836;SHT30;52595;51.608;7.216;2023-01-09T07:38:02;6.29;94.26
65836;SHT30;52595;51.608;7.216;2023-01-09T07:40:27;6.36;93.77
65836;SHT30;52595;51.608;7.216;2023-01-09T07:42:53;6.48;92.35
65836;SHT30;52595;51.608;7.216;2023-01-09T07:45:19;6.57;92.07
65836;SHT30;52595;51.608;7.216;2023-01-09T07:47:44;6.63;91.72
65836;SHT30;52595;51.608;7.216;2023-01-09T07:50:10;6.68;91.69
65836;SHT30;52595;51.608;7.216;2023-01-09T07:52:35;6.66;91.85
65836;SHT30;52595;51.608;7.216;2023-01-09T07:55:01;6.61;91.68
65836;SHT30;52595;51.608;7.216;2023-01-09T07:57:26;6.54;92.12
65836;SHT30;52595;51.608;7.216;2023-01-09T07:59:52;6.53;92.39
65836;SHT30;52595;51.608;7.216;2023-01-09T08:02:17;6.50;92.79
65836;SHT30;52595;51.608;7.216;2023-01-09T08:04:42;6.50;92.54
65836;SHT30;52595;51.608;7.216;2023-01-09T08:07:08;6.63;91.70
65836;SHT30;52595;51.608;7.216;2023-01-09T08:09:33;6.68;91.81
65836;SHT30;52595;51.608;7.216;2023-01-09T08:11:58;6.77;91.72
65836;SHT30;52595;51.608;7.216;2023-01-09T08:14:24;6.80;91.72
65836;SHT30;52595;51.608;7.216;2023-01-09T08:16:49;6.78;92.06
65836;SHT30;52595;51.608;7.216;2023-01-09T08:19:15;6.78;91.59
65836;SHT30;52595;51.608;7.216;2023-01-09T08:21:40;6.74;91.93
65836;SHT30;52595;51.608;7.216;2023-01-09T08:24:06;6.74;92.27
65836;SHT30;52595;51.608;7.216;2023-01-09T08:26:31;6.77;92.02
65836;SHT30;52595;51.608;7.216;2023-01-09T08:28:57;6.74;92.89
65836;SHT30;52595;51.608;7.216;2023-01-09T08:31:23;6.71;93.20
65836;SHT30;52595;51.608;7.216;2023-01-09T08:33:48;6.71;93.03
65836;SHT30;52595;51.608;7.216;2023-01-09T08:36:13;6.68;93.40
65836;SHT30;52595;51.608;7.216;2023-01-09T08:38:39;6.61;94.49
65836;SHT30;52595;51.608;7.216;2023-01-09T08:41:04;6.51;95.29
65836;SHT30;52595;51.608;7.216;2023-01-09T08:43:50;6.46;95.61
65836;SHT30;52595;51.608;7.216;2023-01-09T08:46:34;6.46;95.99
65836;SHT30;52595;51.608;7.216;2023-01-09T08:49:18;6.46;96.02
65836;SHT30;52595;51.608;7.216;2023-01-09T08:51:44;6.48;96.16
65836;SHT30;52595;51.608;7.216;2023-01-09T08:54:09;6.46;96.59
65836;SHT30;52595;51.608;7.216;2023-01-09T08:56:34;6.46;96.53
65836;SHT30;52595;51.608;7.216;2023-01-09T08:59:00;6.48;96.17
65836;SHT30;52595;51.608;7.216;2023-01-09T09:01:25;6.46;96.74
65836;SHT30;52595;51.608;7.216;2023-01-09T09:03:50;6.46;96.67
65836;SHT30;52595;51.608;7.216;2023-01-09T09:06:16;6.43;97.26
65836;SHT30;52595;51.608;7.216;2023-01-09T09:08:41;6.40;97.68
65836;SHT30;52595;51.608;7.216;2023-01-09T09:11:06;6.41;97.90
65836;SHT30;52595;51.608;7.216;2023-01-09T09:13:32;6.37;96.99
65836;SHT30;52595;51.608;7.216;2023-01-09T09:15:57;6.36;97.32
65836;SHT30;52595;51.608;7.216;2023-01-09T09:18:23;6.30;97.80
65836;SHT30;52595;51.608;7.216;2023-01-09T09:20:48;6.29;98.40
65836;SHT30;52595;51.608;7.216;2023-01-09T09:23:13;6.36;98.16
65836;SHT30;52595;51.608;7.216;2023-01-09T09:25:39;6.41;98.11
65836;SHT30;52595;51.608;7.216;2023-01-09T09:28:05;6.40;97.96
65836;SHT30;52595;51.608;7.216;2023-01-09T09:30:30;6.40;98.21
65836;SHT30;52595;51.608;7.216;2023-01-09T09:32:56;6.38;97.84
65836;SHT30;52595;51.608;7.216;2023-01-09T09:35:21;6.44;97.30
65836;SHT30;52595;51.608;7.216;2023-01-09T09:37:58;6.44;98.18
65836;SHT30;52595;51.608;7.216;2023-01-09T09:43:38;6.50;97.84
65836;SHT30;52595;51.608;7.216;2023-01-09T09:46:46;6.57;96.80
65836;SHT30;52595;51.608;7.216;2023-01-09T09:49:17;6.58;97.88
65836;SHT30;52595;51.608;7.216;2023-01-09T09:54:19;6.73;97.17
65836;SHT30;52595;51.608;7.216;2023-01-09T09:56:55;6.80;97.10
65836;SHT30;52595;51.608;7.216;2023-01-09T09:59:27;6.83;97.48
65836;SHT30;52595;51.608;7.216;2023-01-09T10:02:00;6.88;97.41
65836;SHT30;52595;51.608;7.216;2023-01-09T10:04:29;6.94;97.25
65836;SHT30;52595;51.608;7.216;2023-01-09T10:07:07;6.95;96.95
65836;SHT30;52595;51.608;7.216;2023-01-09T10:10:00;7.01;95.94
65836;SHT30;52595;51.608;7.216;2023-01-09T10:12:42;7.01;95.94
65836;SHT30;52595;51.608;7.216;2023-01-09T10:15:28;7.04;95.33
65836;SHT30;52595;51.608;7.216;2023-01-09T10:18:08;7.16;94.80
65836;SHT30;52595;51.608;7.216;2023-01-09T10:20:46;7.21;94.03
65836;SHT30;52595;51.608;7.216;2023-01-09T10:39:27;7.84;89.97
65836;SHT30;52595;51.608;7.216;2023-01-09T10:41:57;7.83;88.98
65836;SHT30;52595;51.608;7.216;2023-01-09T10:44:35;7.76;90.65
65836;SHT30;52595;51.608;7.216;2023-01-09T10:47:25;7.74;90.18
65836;SHT30;52595;51.608;7.216;2023-01-09T10:49:52;7.77;89.97
65836;SHT30;52595;51.608;7.216;2023-01-09T10:52:24;7.84;89.94
65836;SHT30;52595;51.608;7.216;2023-01-09T10:55:02;7.87;89.14
65836;SHT30;52595;51.608;7.216;2023-01-09T10:57:41;7.89;89.41
65836;SHT30;52595;51.608;7.216;2023-01-09T11:00:22;7.90;88.88
65836;SHT30;52595;51.608;7.216;2023-01-09T11:02:49;7.94;88.54
65836;SHT30;52595;51.608;7.216;2023-01-09T11:05:18;7.93;88.37
65836;SHT30;52595;51.608;7.216;2023-01-09T11:07:48;7.91;88.64
65836;SHT30;52595;51.608;7.216;2023-01-09T11:10:15;7.89;88.46
65836;SHT30;52595;51.608;7.216;2023-01-09T11:12:41;7.83;88.91
65836;SHT30;52595;51.608;7.216;2023-01-09T11:17:49;7.96;87.58
65836;SHT30;52595;51.608;7.216;2023-01-09T11:20:20;7.97;87.64
65836;SHT30;52595;51.608;7.216;2023-01-09T11:22:48;7.98;87.30
65836;SHT30;52595;51.608;7.216;2023-01-09T11:25:16;7.98;87.04
65836;SHT30;52595;51.608;7.216;2023-01-09T11:27:42;7.98;87.32
65836;SHT30;52595;51.608;7.216;2023-01-09T11:30:16;7.98;87.97
65836;SHT30;52595;51.608;7.216;2023-01-09T11:32:45;8.00;87.35
65836;SHT30;52595;51.608;7.216;2023-01-09T11:35:20;7.97;87.65
65836;SHT30;52595;51.608;7.216;2023-01-09T11:37:47;8.00;87.09
65836;SHT30;52595;51.608;7.216;2023-01-09T11:40:19;7.98;87.28
65836;SHT30;52595;51.608;7.216;2023-01-09T11:45:51;7.84;88.07
65836;SHT30;52595;51.608;7.216;2023-01-09T11:49:18;7.77;88.43
65836;SHT30;52595;51.608;7.216;2023-01-09T11:51:34;7.79;88.62
65836;SHT30;52595;51.608;7.216;2023-01-09T11:56:44;7.80;88.91
65836;SHT30;52595;51.608;7.216;2023-01-09T11:59:12;7.86;88.04
65836;SHT30;52595;51.608;7.216;2023-01-09T12:04:18;7.97;87.40
65836;SHT30;52595;51.608;7.216;2023-01-09T12:06:48;8.00;87.24
65836;SHT30;52595;51.608;7.216;2023-01-09T12:11:55;8.04;86.43
65836;SHT30;52595;51.608;7.216;2023-01-09T12:14:25;8.01;87.02
65836;SHT30;52595;51.608;7.216;2023-01-09T12:19:42;8.07;87.08
65836;SHT30;52595;51.608;7.216;2023-01-09T12:27:54;7.97;87.26
65836;SHT30;52595;51.608;7.216;2023-01-09T12:39:06;7.56;90.00
65836;SHT30;52595;51.608;7.216;2023-01-09T12:42:05;7.52;89.85
65836;SHT30;52595;51.608;7.216;2023-01-09T12:44:52;7.53;90.20
65836;SHT30;52595;51.608;7.216;2023-01-09T12:52:38;7.70;89.50
65836;SHT30;52595;51.608;7.216;2023-01-09T12:55:10;7.84;88.31
65836;SHT30;52595;51.608;7.216;2023-01-09T12:57:42;7.90;88.61
65836;SHT30;52595;51.608;7.216;2023-01-09T13:00:22;8.01;88.28
65836;SHT30;52595;51.608;7.216;2023-01-09T13:03:20;7.93;88.66
65836;SHT30;52595;51.608;7.216;2023-01-09T13:05:50;7.83;88.70
65836;SHT30;52595;51.608;7.216;2023-01-09T13:08:28;7.80;89.08
65836;SHT30;52595;51.608;7.216;2023-01-09T13:11:08;7.76;89.23
65836;SHT30;52595;51.608;7.216;2023-01-09T13:13:59;7.63;89.28
65836;SHT30;52595;51.608;7.216;2023-01-09T13:16:32;7.55;89.36
65836;SHT30;52595;51.608;7.216;2023-01-09T13:19:23;7.58;89.23
65836;SHT30;52595;51.608;7.216;2023-01-09T13:21:49;7.62;88.98
65836;SHT30;52595;51.608;7.216;2023-01-09T13:24:21;7.63;89.01
65836;SHT30;52595;51.608;7.216;2023-01-09T13:26:56;7.65;88.87
65836;SHT30;52595;51.608;7.216;2023-01-09T13:29:31;7.65;88.55
65836;SHT30;52595;51.608;7.216;2023-01-09T13:34:44;7.77;88.38
65836;SHT30;52595;51.608;7.216;2023-01-09T13:37:34;7.83;88.31
65836;SHT30;52595;51.608;7.216;2023-01-09T13:40:01;7.89;87.84
65836;SHT30;52595;51.608;7.216;2023-01-09T13:42:27;7.90;88.00
65836;SHT30;52595;51.608;7.216;2023-01-09T13:47:42;7.82;88.15
65836;SHT30;52595;51.608;7.216;2023-01-09T13:52:43;7.79;88.58
65836;SHT30;52595;51.608;7.216;2023-01-09T13:57:44;7.73;88.80
65836;SHT30;52595;51.608;7.216;2023-01-09T14:05:13;7.66;88.49
65836;SHT30;52595;51.608;7.216;2023-01-09T14:07:43;7.66;88.61
65836;SHT30;52595;51.608;7.216;2023-01-09T14:10:26;7.66;88.67
65836;SHT30;52595;51.608;7.216;2023-01-09T14:12:55;7.67;88.48
65836;SHT30;52595;51.608;7.216;2023-01-09T14:15:35;7.66;88.47
65836;SHT30;52595;51.608;7.216;2023-01-09T14:18:06;7.66;88.87
65836;SHT30;52595;51.608;7.216;2023-01-09T14:20:41;7.65;88.60
65836;SHT30;52595;51.608;7.216;2023-01-09T14:23:27;7.62;88.75
65836;SHT30;52595;51.608;7.216;2023-01-09T14:25:54;7.67;88.68
65836;SHT30;52595;51.608;7.216;2023-01-09T14:28:23;7.66;88.81
65836;SHT30;52595;51.608;7.216;2023-01-09T14:35:51;7.63;88.80
65836;SHT30;52595;51.608;7.216;2023-01-09T14:40:59;7.60;89.36
65836;SHT30;52595;51.608;7.216;2023-01-09T14:46:10;7.21;92.40
65836;SHT30;52595;51.608;7.216;2023-01-09T14:48:39;7.09;92.47
65836;SHT30;52595;51.608;7.216;2023-01-09T14:51:11;7.08;92.48
65836;SHT30;52595;51.608;7.216;2023-01-09T14:53:39;7.08;92.07
65836;SHT30;52595;51.608;7.216;2023-01-09T14:56:05;7.16;91.92
65836;SHT30;52595;51.608;7.216;2023-01-09T14:58:36;7.18;92.24
65836;SHT30;52595;51.608;7.216;2023-01-09T15:06:11;6.83;95.03
65836;SHT30;52595;51.608;7.216;2023-01-09T15:08:38;6.68;95.79
65836;SHT30;52595;51.608;7.216;2023-01-09T15:11:04;6.64;96.58
65836;SHT30;52595;51.608;7.216;2023-01-09T15:13:31;6.61;96.60
65836;SHT30;52595;51.608;7.216;2023-01-09T15:15:57;6.71;96.21
65836;SHT30;52595;51.608;7.216;2023-01-09T15:18:28;6.71;95.94
65836;SHT30;52595;51.608;7.216;2023-01-09T15:20:57;6.73;95.84
65836;SHT30;52595;51.608;7.216;2023-01-09T15:23:26;6.70;95.99
65836;SHT30;52595;51.608;7.216;2023-01-09T15:25:54;6.68;96.28
65836;SHT30;52595;51.608;7.216;2023-01-09T15:28:29;6.64;96.55
65836;SHT30;52595;51.608;7.216;2023-01-09T15:31:24;6.57;97.11
65836;SHT30;52595;51.608;7.216;2023-01-09T15:33:50;6.48;97.41
65836;SHT30;52595;51.608;7.216;2023-01-09T15:36:19;6.43;97.50
65836;SHT30;52595;51.608;7.216;2023-01-09T15:38:46;6.47;96.95
65836;SHT30;52595;51.608;7.216;2023-01-09T15:41:26;6.40;97.55
65836;SHT30;52595;51.608;7.216;2023-01-09T15:44:15;6.43;97.59
65836;SHT30;52595;51.608;7.216;2023-01-09T15:46:42;6.37;98.28
65836;SHT30;52595;51.608;7.216;2023-01-09T15:49:11;6.38;98.77
65836;SHT30;52595;51.608;7.216;2023-01-09T15:51:37;6.34;98.97
65836;SHT30;52595;51.608;7.216;2023-01-09T15:54:04;6.36;99.37
65836;SHT30;52595;51.608;7.216;2023-01-09T15:56:29;6.30;99.90
65836;SHT30;52595;51.608;7.216;2023-01-09T15:58:56;6.29;99.60
65836;SHT30;52595;51.608;7.216;2023-01-09T16:01:28;6.26;98.91
65836;SHT30;52595;51.608;7.216;2023-01-09T16:03:57;6.27;98.69
65836;SHT30;52595;51.608;7.216;2023-01-09T16:06:29;6.29;98.82
65836;SHT30;52595;51.608;7.216;2023-01-09T16:08:57;6.29;98.80
65836;SHT30;52595;51.608;7.216;2023-01-09T16:11:29;6.36;98.38
65836;SHT30;52595;51.608;7.216;2023-01-09T16:14:11;6.40;98.39
65836;SHT30;52595;51.608;7.216;2023-01-09T16:16:37;6.40;98.64
65836;SHT30;52595;51.608;7.216;2023-01-09T16:19:03;6.36;99.29
65836;SHT30;52595;51.608;7.216;2023-01-09T16:21:31;6.32;99.49
65836;SHT30;52595;51.608;7.216;2023-01-09T16:24:01;6.33;99.68
65836;SHT30;52595;51.608;7.216;2023-01-09T16:26:29;6.34;99.73
65836;SHT30;52595;51.608;7.216;2023-01-09T16:28:55;6.33;99.97
65836;SHT30;52595;51.608;7.216;2023-01-09T16:31:27;6.34;99.98
65836;SHT30;52595;51.608;7.216;2023-01-09T16:33:57;6.37;99.96
65836;SHT30;52595;51.608;7.216;2023-01-09T16:36:24;6.36;99.88
65836;SHT30;52595;51.608;7.216;2023-01-09T16:38:49;6.36;99.99
65836;SHT30;52595;51.608;7.216;2023-01-09T16:41:17;6.33;99.99
65836;SHT30;52595;51.608;7.216;2023-01-09T16:44:02;6.33;99.99
65836;SHT30;52595;51.608;7.216;2023-01-09T16:46:32;6.34;99.98
65836;SHT30;52595;51.608;7.216;2023-01-09T16:48:59;6.37;98.92
65836;SHT30;52595;51.608;7.216;2023-01-09T16:51:25;6.38;99.12
65836;SHT30;52595;51.608;7.216;2023-01-09T16:53:53;6.43;98.31
65836;SHT30;52595;51.608;7.216;2023-01-09T16:56:22;6.46;98.35
65836;SHT30;52595;51.608;7.216;2023-01-09T16:58:49;6.47;98.17
65836;SHT30;52595;51.608;7.216;2023-01-09T17:01:15;6.44;98.06
65836;SHT30;52595;51.608;7.216;2023-01-09T17:03:41;6.36;98.66
65836;SHT30;52595;51.608;7.216;2023-01-09T17:06:14;6.33;98.82
65836;SHT30;52595;51.608;7.216;2023-01-09T17:08:39;6.29;98.90
65836;SHT30;52595;51.608;7.216;2023-01-09T17:11:05;6.32;98.61
65836;SHT30;52595;51.608;7.216;2023-01-09T17:13:31;6.33;98.43
65836;SHT30;52595;51.608;7.216;2023-01-09T17:15:57;6.29;98.78
65836;SHT30;52595;51.608;7.216;2023-01-09T17:18:24;6.33;98.54
65836;SHT30;52595;51.608;7.216;2023-01-09T17:20:51;6.34;98.71
65836;SHT30;52595;51.608;7.216;2023-01-09T17:23:17;6.38;98.25
65836;SHT30;52595;51.608;7.216;2023-01-09T17:25:45;6.34;98.72
65836;SHT30;52595;51.608;7.216;2023-01-09T17:28:30;6.43;98.00
65836;SHT30;52595;51.608;7.216;2023-01-09T17:30:56;6.40;98.44
65836;SHT30;52595;51.608;7.216;2023-01-09T17:33:21;6.44;98.17
65836;SHT30;52595;51.608;7.216;2023-01-09T17:35:47;6.41;98.16
65836;SHT30;52595;51.608;7.216;2023-01-09T17:38:15;6.37;97.97
65836;SHT30;52595;51.608;7.216;2023-01-09T17:40:42;6.22;98.20
65836;SHT30;52595;51.608;7.216;2023-01-09T17:43:07;6.17;98.17
65836;SHT30;52595;51.608;7.216;2023-01-09T17:45:33;6.13;97.95
65836;SHT30;52595;51.608;7.216;2023-01-09T17:47:58;6.07;97.04
65836;SHT30;52595;51.608;7.216;2023-01-09T17:50:24;6.02;97.15
65836;SHT30;52595;51.608;7.216;2023-01-09T17:52:52;5.93;96.45
65836;SHT30;52595;51.608;7.216;2023-01-09T17:55:18;5.89;95.99